CSZ8034 VHHH-ZUTF
Flight info
| Callsign | CSZ8034 |
|---|---|
| Flight time | 2h 17m |
| Altitude | 34100 |
| Route | BEKOL A461 SHL W22 TEPID W24 OSNOV G586 QP B330 ELKAL W179 RIRKI W232 ELDUD ELDUD5E |
| Aircraft | A320/M-SDE3FGHIRWY/LB1 |
Departure
| Time | 2026-05-04 11:55 |
|---|---|
| Airport | Hong Kong International Airport (VHHH) |
Arrival
| Time | 2026-05-04 14:12 |
|---|---|
| Airport | Chengdu Tianfu International Airport (ZUTF) |
| Time | Latitude | Longitude | Altitude | Speed | Heading |
|---|---|---|---|---|---|
| 2026-05-04 11:16 | 22.30888 | 113.91901 | 37 ft | 0 kts | 251° |
| 2026-05-04 11:42 | 22.30890 | 113.91907 | 37 ft | 4 kts | 251° |
| 2026-05-04 11:42 | 22.30899 | 113.91935 | 35 ft | 4 kts | 251° |
| 2026-05-04 11:42 | 22.30907 | 113.91959 | 34 ft | 2 kts | 251° |
| 2026-05-04 11:43 | 22.30910 | 113.91984 | 34 ft | 4 kts | 297° |
| 2026-05-04 11:43 | 22.30892 | 113.92003 | 36 ft | 3 kts | 339° |
| 2026-05-04 11:43 | 22.30888 | 113.92004 | 37 ft | 0 kts | 341° |
| 2026-05-04 11:47 | 22.30890 | 113.92004 | 37 ft | 1 kts | 341° |
| 2026-05-04 11:47 | 22.30910 | 113.91996 | 34 ft | 5 kts | 341° |
| 2026-05-04 11:48 | 22.30958 | 113.91978 | 37 ft | 9 kts | 341° |
| 2026-05-04 11:48 | 22.31015 | 113.91961 | 37 ft | 7 kts | 357° |
| 2026-05-04 11:48 | 22.31054 | 113.91996 | 37 ft | 8 kts | 74° |
| 2026-05-04 11:48 | 22.31025 | 113.92044 | 37 ft | 8 kts | 157° |
| 2026-05-04 11:49 | 22.30954 | 113.92071 | 37 ft | 13 kts | 161° |
| 2026-05-04 11:49 | 22.30860 | 113.92107 | 37 ft | 15 kts | 160° |
| 2026-05-04 11:49 | 22.30760 | 113.92145 | 37 ft | 13 kts | 161° |
| 2026-05-04 11:49 | 22.30699 | 113.92163 | 37 ft | 7 kts | 176° |
| 2026-05-04 11:50 | 22.30656 | 113.92131 | 37 ft | 9 kts | 243° |
| 2026-05-04 11:50 | 22.30631 | 113.92059 | 36 ft | 13 kts | 250° |
| 2026-05-04 11:50 | 22.30596 | 113.91951 | 37 ft | 18 kts | 250° |
| 2026-05-04 11:50 | 22.30548 | 113.91807 | 37 ft | 23 kts | 251° |
| 2026-05-04 11:51 | 22.30496 | 113.91639 | 37 ft | 25 kts | 251° |
| 2026-05-04 11:51 | 22.30438 | 113.91459 | 37 ft | 26 kts | 250° |
| 2026-05-04 11:51 | 22.30376 | 113.91269 | 34 ft | 28 kts | 251° |
| 2026-05-04 11:51 | 22.30311 | 113.91068 | 37 ft | 29 kts | 250° |
| 2026-05-04 11:52 | 22.30241 | 113.90859 | 36 ft | 30 kts | 250° |
| 2026-05-04 11:52 | 22.30175 | 113.90650 | 35 ft | 28 kts | 253° |
| 2026-05-04 11:52 | 22.30121 | 113.90488 | 36 ft | 19 kts | 250° |
| 2026-05-04 11:52 | 22.30086 | 113.90385 | 36 ft | 11 kts | 247° |
| 2026-05-04 11:53 | 22.30025 | 113.90364 | 36 ft | 10 kts | 175° |
| 2026-05-04 11:53 | 22.29984 | 113.90342 | 36 ft | 11 kts | 232° |
| 2026-05-04 11:53 | 22.29937 | 113.90238 | 36 ft | 12 kts | 225° |
| 2026-05-04 11:53 | 22.29859 | 113.90241 | 35 ft | 13 kts | 160° |
| 2026-05-04 11:55 | 22.31110 | 113.94446 | 1326 ft | 142 kts | 72° |
| 2026-05-04 11:55 | 22.31433 | 113.95466 | 1771 ft | 146 kts | 72° |
| 2026-05-04 11:56 | 22.31787 | 113.96568 | 1962 ft | 166 kts | 72° |
| 2026-05-04 11:56 | 22.32194 | 113.97830 | 2145 ft | 189 kts | 72° |
| 2026-05-04 11:56 | 22.32651 | 113.99246 | 2419 ft | 208 kts | 72° |
| 2026-05-04 11:56 | 22.33133 | 114.00736 | 3019 ft | 212 kts | 72° |
| 2026-05-04 11:57 | 22.33625 | 114.02263 | 3606 ft | 218 kts | 74° |
| 2026-05-04 11:57 | 22.33832 | 114.03897 | 4192 ft | 223 kts | 95° |
| 2026-05-04 11:57 | 22.33486 | 114.05541 | 4776 ft | 228 kts | 116° |
| 2026-05-04 11:57 | 22.32968 | 114.06537 | 5118 ft | 234 kts | 126° |
| 2026-05-04 11:58 | 22.32113 | 114.08138 | 5387 ft | 259 kts | 117° |
| 2026-05-04 11:58 | 22.31142 | 114.10650 | 5959 ft | 283 kts | 112° |
| 2026-05-04 11:58 | 22.30672 | 114.12006 | 6414 ft | 288 kts | 111° |
| 2026-05-04 11:58 | 22.29972 | 114.14051 | 7079 ft | 294 kts | 111° |
| 2026-05-04 11:59 | 22.29004 | 114.16816 | 7974 ft | 300 kts | 112° |
| 2026-05-04 11:59 | 22.28491 | 114.18240 | 8437 ft | 303 kts | 113° |
| 2026-05-04 11:59 | 22.27710 | 114.20370 | 9128 ft | 307 kts | 114° |
| 2026-05-04 11:59 | 22.26906 | 114.22526 | 9794 ft | 312 kts | 114° |
| 2026-05-04 12:00 | 22.26077 | 114.24719 | 10236 ft | 323 kts | 114° |
| 2026-05-04 12:00 | 22.25386 | 114.27115 | 10358 ft | 347 kts | 101° |
| 2026-05-04 12:00 | 22.25328 | 114.29794 | 10482 ft | 369 kts | 81° |
| 2026-05-04 12:00 | 22.26183 | 114.32455 | 10610 ft | 385 kts | 57° |
| 2026-05-04 12:01 | 22.27978 | 114.34611 | 10897 ft | 391 kts | 33° |
| 2026-05-04 12:01 | 22.30415 | 114.35856 | 11378 ft | 388 kts | 9° |
| 2026-05-04 12:02 | 22.43298 | 114.28437 | 14528 ft | 377 kts | 305° |
| 2026-05-04 12:03 | 22.44927 | 114.26202 | 15012 ft | 380 kts | 305° |
| 2026-05-04 12:03 | 22.46570 | 114.23948 | 15503 ft | 383 kts | 305° |
| 2026-05-04 12:03 | 22.48223 | 114.21682 | 15997 ft | 385 kts | 305° |
| 2026-05-04 12:03 | 22.49890 | 114.19403 | 16504 ft | 388 kts | 305° |
| 2026-05-04 12:04 | 22.51571 | 114.17103 | 17011 ft | 390 kts | 305° |
| 2026-05-04 12:04 | 22.53335 | 114.14857 | 17485 ft | 396 kts | 311° |
| 2026-05-04 12:04 | 22.55472 | 114.12939 | 17971 ft | 404 kts | 322° |
| 2026-05-04 12:04 | 22.57955 | 114.11463 | 18430 ft | 411 kts | 330° |
| 2026-05-04 12:05 | 22.60548 | 114.10143 | 18830 ft | 413 kts | 330° |
| 2026-05-04 12:05 | 22.63155 | 114.08810 | 19223 ft | 415 kts | 330° |
| 2026-05-04 12:05 | 22.65769 | 114.07468 | 19624 ft | 418 kts | 330° |
| 2026-05-04 12:05 | 22.68400 | 114.06114 | 20015 ft | 420 kts | 330° |
| 2026-05-04 12:06 | 22.71043 | 114.04751 | 20405 ft | 422 kts | 330° |
| 2026-05-04 12:06 | 22.73703 | 114.03382 | 20773 ft | 424 kts | 330° |
| 2026-05-04 12:06 | 22.76375 | 114.02008 | 21133 ft | 426 kts | 330° |
| 2026-05-04 12:06 | 22.79065 | 114.00622 | 21476 ft | 428 kts | 330° |
| 2026-05-04 12:07 | 22.81758 | 113.99233 | 21829 ft | 430 kts | 330° |
| 2026-05-04 12:07 | 22.84471 | 113.97835 | 22170 ft | 432 kts | 330° |
| 2026-05-04 12:07 | 22.87199 | 113.96432 | 22483 ft | 434 kts | 330° |
| 2026-05-04 12:07 | 22.89931 | 113.95024 | 22797 ft | 436 kts | 330° |
| 2026-05-04 12:08 | 22.92673 | 113.93602 | 23111 ft | 438 kts | 330° |
| 2026-05-04 12:08 | 22.95423 | 113.92168 | 23415 ft | 439 kts | 329° |
| 2026-05-04 12:08 | 22.98185 | 113.90725 | 23692 ft | 441 kts | 329° |
| 2026-05-04 12:08 | 23.00953 | 113.89279 | 23929 ft | 443 kts | 329° |
| 2026-05-04 12:09 | 23.03737 | 113.87829 | 24166 ft | 444 kts | 329° |
| 2026-05-04 12:09 | 23.06527 | 113.86374 | 24396 ft | 446 kts | 328° |
| 2026-05-04 12:09 | 23.09186 | 113.84674 | 24623 ft | 441 kts | 320° |
| 2026-05-04 12:09 | 23.11528 | 113.82555 | 24854 ft | 437 kts | 311° |
| 2026-05-04 12:10 | 23.13719 | 113.80262 | 25144 ft | 437 kts | 311° |
| 2026-05-04 12:10 | 23.15906 | 113.77979 | 25506 ft | 435 kts | 311° |
| 2026-05-04 12:10 | 23.18084 | 113.75703 | 25862 ft | 434 kts | 311° |
| 2026-05-04 12:10 | 23.20258 | 113.73428 | 26216 ft | 433 kts | 311° |
| 2026-05-04 12:11 | 23.22423 | 113.71160 | 26572 ft | 432 kts | 310° |
| 2026-05-04 12:11 | 23.24586 | 113.68893 | 26939 ft | 431 kts | 310° |
| 2026-05-04 12:11 | 23.26742 | 113.66636 | 27295 ft | 430 kts | 310° |
| 2026-05-04 12:11 | 23.28894 | 113.64383 | 27679 ft | 429 kts | 310° |
| 2026-05-04 12:12 | 23.31043 | 113.62136 | 28055 ft | 428 kts | 310° |
| 2026-05-04 12:12 | 23.33154 | 113.59924 | 28443 ft | 426 kts | 309° |
| 2026-05-04 12:12 | 23.35287 | 113.57685 | 28852 ft | 425 kts | 309° |
| 2026-05-04 12:12 | 23.37408 | 113.55455 | 29264 ft | 424 kts | 309° |
| 2026-05-04 12:13 | 23.39527 | 113.53229 | 29682 ft | 423 kts | 309° |
| 2026-05-04 12:14 | 23.54120 | 113.37859 | 32431 ft | 410 kts | 308° |
| 2026-05-04 12:15 | 23.56154 | 113.35692 | 32828 ft | 407 kts | 308° |
| 2026-05-04 12:15 | 23.58164 | 113.33534 | 33227 ft | 405 kts | 308° |
| 2026-05-04 12:15 | 23.60162 | 113.31381 | 33652 ft | 403 kts | 308° |
| 2026-05-04 12:15 | 23.62149 | 113.29237 | 34031 ft | 401 kts | 308° |
| 2026-05-04 12:16 | 23.66025 | 113.24857 | 34150 ft | 402 kts | 301° |
| 2026-05-04 12:16 | 23.68749 | 113.19551 | 34148 ft | 403 kts | 289° |
| 2026-05-04 12:17 | 23.71047 | 113.13998 | 34143 ft | 405 kts | 289° |
| 2026-05-04 12:17 | 23.73368 | 113.08391 | 34143 ft | 405 kts | 289° |
| 2026-05-04 12:18 | 23.75734 | 113.02809 | 34142 ft | 408 kts | 295° |
| 2026-05-04 12:18 | 23.77412 | 113.00272 | 34146 ft | 417 kts | 306° |
| 2026-05-04 12:18 | 23.79602 | 112.98141 | 34143 ft | 429 kts | 318° |
| 2026-05-04 12:19 | 23.82249 | 112.96552 | 34145 ft | 443 kts | 330° |
| 2026-05-04 12:19 | 23.85209 | 112.95503 | 34144 ft | 449 kts | 334° |
| 2026-05-04 12:19 | 23.91202 | 112.93544 | 34145 ft | 450 kts | 334° |
| 2026-05-04 12:20 | 23.97206 | 112.91575 | 34145 ft | 451 kts | 334° |
| 2026-05-04 12:20 | 24.03212 | 112.89574 | 34151 ft | 451 kts | 334° |
| 2026-05-04 12:21 | 24.09174 | 112.87580 | 34154 ft | 451 kts | 334° |
| 2026-05-04 12:21 | 24.15189 | 112.85570 | 34159 ft | 452 kts | 334° |
| 2026-05-04 12:22 | 24.21207 | 112.83567 | 34160 ft | 453 kts | 334° |
| 2026-05-04 12:22 | 24.27233 | 112.81561 | 34167 ft | 453 kts | 334° |
| 2026-05-04 12:23 | 24.33265 | 112.79556 | 34176 ft | 453 kts | 334° |
| 2026-05-04 12:23 | 24.39302 | 112.77550 | 34183 ft | 453 kts | 334° |
| 2026-05-04 12:24 | 24.42238 | 112.76386 | 34179 ft | 442 kts | 324° |
| 2026-05-04 12:24 | 24.44796 | 112.74650 | 34176 ft | 426 kts | 313° |
| 2026-05-04 12:24 | 24.46892 | 112.72419 | 34177 ft | 414 kts | 302° |
| 2026-05-04 12:24 | 24.48468 | 112.69835 | 34175 ft | 404 kts | 291° |
| 2026-05-04 12:25 | 24.50005 | 112.64091 | 34159 ft | 393 kts | 273° |
| 2026-05-04 12:25 | 24.50579 | 112.58124 | 34149 ft | 394 kts | 273° |
| 2026-05-04 12:26 | 24.51164 | 112.52132 | 34157 ft | 395 kts | 273° |
| 2026-05-04 12:26 | 24.51747 | 112.46142 | 34159 ft | 395 kts | 274° |
| 2026-05-04 12:27 | 24.52330 | 112.40142 | 34159 ft | 395 kts | 274° |
| 2026-05-04 12:27 | 24.52914 | 112.34136 | 34155 ft | 396 kts | 274° |
| 2026-05-04 12:28 | 24.53489 | 112.28121 | 34161 ft | 396 kts | 274° |
| 2026-05-04 12:28 | 24.54057 | 112.22137 | 34164 ft | 397 kts | 274° |
| 2026-05-04 12:29 | 24.54628 | 112.16106 | 34165 ft | 397 kts | 274° |
| 2026-05-04 12:29 | 24.55200 | 112.10070 | 34166 ft | 397 kts | 274° |
| 2026-05-04 12:30 | 24.55767 | 112.04032 | 34170 ft | 398 kts | 274° |
| 2026-05-04 12:30 | 24.56336 | 111.97986 | 34164 ft | 398 kts | 274° |
| 2026-05-04 12:31 | 24.56902 | 111.91943 | 34168 ft | 398 kts | 274° |
| 2026-05-04 12:31 | 24.57462 | 111.85905 | 34159 ft | 397 kts | 273° |
| 2026-05-04 12:32 | 24.58301 | 111.76891 | 34158 ft | 397 kts | 274° |
| 2026-05-04 12:33 | 24.58845 | 111.70851 | 34147 ft | 397 kts | 274° |
| 2026-05-04 12:33 | 24.59394 | 111.64809 | 34150 ft | 397 kts | 274° |
| 2026-05-04 12:34 | 24.59950 | 111.58775 | 34147 ft | 397 kts | 274° |
| 2026-05-04 12:34 | 24.60492 | 111.52729 | 34146 ft | 397 kts | 274° |
| 2026-05-04 12:35 | 24.61033 | 111.46696 | 34139 ft | 397 kts | 274° |
| 2026-05-04 12:35 | 24.61582 | 111.40649 | 34134 ft | 397 kts | 274° |
| 2026-05-04 12:36 | 24.62127 | 111.34605 | 34131 ft | 398 kts | 274° |
| 2026-05-04 12:36 | 24.62659 | 111.28593 | 34136 ft | 398 kts | 274° |
| 2026-05-04 12:37 | 24.63191 | 111.22537 | 34139 ft | 398 kts | 274° |
| 2026-05-04 12:37 | 24.63713 | 111.16482 | 34136 ft | 398 kts | 274° |
| 2026-05-04 12:38 | 24.64231 | 111.10430 | 34130 ft | 398 kts | 274° |
| 2026-05-04 12:38 | 24.64747 | 111.04373 | 34131 ft | 398 kts | 274° |
| 2026-05-04 12:39 | 24.65264 | 110.98314 | 34128 ft | 398 kts | 274° |
| 2026-05-04 12:39 | 24.65779 | 110.92255 | 34123 ft | 398 kts | 274° |
| 2026-05-04 12:40 | 24.66280 | 110.86232 | 34122 ft | 398 kts | 274° |
| 2026-05-04 12:40 | 24.67070 | 110.80213 | 34119 ft | 401 kts | 285° |
| 2026-05-04 12:41 | 24.69787 | 110.74821 | 34120 ft | 413 kts | 306° |
| 2026-05-04 12:41 | 24.73938 | 110.70373 | 34124 ft | 417 kts | 310° |
| 2026-05-04 12:42 | 24.78133 | 110.65969 | 34117 ft | 417 kts | 310° |
| 2026-05-04 12:42 | 24.82333 | 110.61555 | 34118 ft | 417 kts | 310° |
| 2026-05-04 12:43 | 24.86529 | 110.57132 | 34119 ft | 417 kts | 310° |
| 2026-05-04 12:43 | 24.90718 | 110.52702 | 34116 ft | 417 kts | 310° |
| 2026-05-04 12:44 | 24.94910 | 110.48267 | 34115 ft | 418 kts | 310° |
| 2026-05-04 12:44 | 24.99102 | 110.43828 | 34121 ft | 418 kts | 309° |
| 2026-05-04 12:45 | 25.03265 | 110.39421 | 34121 ft | 418 kts | 310° |
| 2026-05-04 12:45 | 25.07464 | 110.34989 | 34120 ft | 418 kts | 310° |
| 2026-05-04 12:46 | 25.11661 | 110.30561 | 34122 ft | 417 kts | 310° |
| 2026-05-04 12:46 | 25.15859 | 110.26122 | 34130 ft | 417 kts | 310° |
| 2026-05-04 12:47 | 25.20049 | 110.21681 | 34131 ft | 417 kts | 310° |
| 2026-05-04 12:47 | 25.24251 | 110.17255 | 34139 ft | 418 kts | 310° |
| 2026-05-04 12:48 | 25.28473 | 110.12851 | 34149 ft | 418 kts | 310° |
| 2026-05-04 12:48 | 25.32664 | 110.08475 | 34150 ft | 417 kts | 311° |
| 2026-05-04 12:49 | 25.36871 | 110.04067 | 34150 ft | 416 kts | 310° |
| 2026-05-04 12:49 | 25.41064 | 109.99652 | 34140 ft | 416 kts | 311° |
| 2026-05-04 12:50 | 25.45259 | 109.95240 | 34148 ft | 416 kts | 311° |
| 2026-05-04 12:50 | 25.49459 | 109.90825 | 34148 ft | 416 kts | 311° |
| 2026-05-04 12:51 | 25.53640 | 109.86418 | 34150 ft | 415 kts | 310° |
| 2026-05-04 12:51 | 25.57810 | 109.82005 | 34149 ft | 414 kts | 310° |
| 2026-05-04 12:52 | 25.61975 | 109.77608 | 34139 ft | 413 kts | 310° |
| 2026-05-04 12:52 | 25.65421 | 109.73970 | 34126 ft | 412 kts | 310° |
| 2026-05-04 12:53 | 25.70259 | 109.68862 | 34141 ft | 413 kts | 310° |
| 2026-05-04 12:53 | 25.74407 | 109.64470 | 34141 ft | 412 kts | 310° |
| 2026-05-04 12:54 | 25.77382 | 109.60401 | 34141 ft | 402 kts | 296° |
| 2026-05-04 12:54 | 25.79353 | 109.54676 | 34139 ft | 397 kts | 285° |
| 2026-05-04 12:55 | 25.80908 | 109.48840 | 34139 ft | 397 kts | 285° |
| 2026-05-04 12:55 | 25.82477 | 109.42961 | 34137 ft | 397 kts | 285° |
| 2026-05-04 12:56 | 25.84034 | 109.37083 | 34138 ft | 397 kts | 285° |
| 2026-05-04 12:56 | 25.85592 | 109.31191 | 34145 ft | 398 kts | 285° |
| 2026-05-04 12:57 | 25.87152 | 109.25286 | 34152 ft | 398 kts | 285° |
| 2026-05-04 12:57 | 25.88709 | 109.19396 | 34154 ft | 398 kts | 285° |
| 2026-05-04 12:58 | 25.90265 | 109.13500 | 34158 ft | 398 kts | 285° |
| 2026-05-04 12:58 | 25.91811 | 109.07603 | 34157 ft | 398 kts | 285° |
| 2026-05-04 12:59 | 25.93354 | 109.01697 | 34163 ft | 398 kts | 285° |
| 2026-05-04 12:59 | 25.94887 | 108.95830 | 34167 ft | 398 kts | 285° |
| 2026-05-04 13:00 | 25.96433 | 108.89929 | 34172 ft | 398 kts | 285° |
| 2026-05-04 13:00 | 25.97978 | 108.84029 | 34176 ft | 398 kts | 285° |
| 2026-05-04 13:01 | 25.99513 | 108.78135 | 34173 ft | 397 kts | 285° |
| 2026-05-04 13:01 | 26.01044 | 108.72234 | 34174 ft | 397 kts | 285° |
| 2026-05-04 13:02 | 26.02605 | 108.66356 | 34170 ft | 397 kts | 285° |
| 2026-05-04 13:02 | 26.04180 | 108.60476 | 34174 ft | 397 kts | 285° |
| 2026-05-04 13:03 | 26.05742 | 108.54590 | 34178 ft | 397 kts | 285° |
| 2026-05-04 13:03 | 26.07302 | 108.48696 | 34185 ft | 397 kts | 285° |
| 2026-05-04 13:04 | 26.08846 | 108.42830 | 34190 ft | 397 kts | 285° |
| 2026-05-04 13:04 | 26.10810 | 108.37091 | 34188 ft | 398 kts | 294° |
| 2026-05-04 13:05 | 26.13225 | 108.31552 | 34192 ft | 398 kts | 294° |
| 2026-05-04 13:05 | 26.15622 | 108.26006 | 34199 ft | 398 kts | 293° |
| 2026-05-04 13:06 | 26.18019 | 108.20456 | 34204 ft | 398 kts | 294° |
| 2026-05-04 13:06 | 26.20413 | 108.14908 | 34201 ft | 397 kts | 293° |
| 2026-05-04 13:07 | 26.22802 | 108.09358 | 34208 ft | 397 kts | 293° |
| 2026-05-04 13:07 | 26.25172 | 108.03850 | 34213 ft | 397 kts | 293° |
| 2026-05-04 13:08 | 26.27559 | 107.98302 | 34207 ft | 397 kts | 294° |
| 2026-05-04 13:08 | 26.29946 | 107.92756 | 34210 ft | 397 kts | 294° |
| 2026-05-04 13:09 | 26.32323 | 107.87206 | 34208 ft | 397 kts | 293° |
| 2026-05-04 13:09 | 26.34707 | 107.81650 | 34211 ft | 397 kts | 294° |
| 2026-05-04 13:10 | 26.37089 | 107.76090 | 34211 ft | 397 kts | 294° |
| 2026-05-04 13:10 | 26.39462 | 107.70528 | 34220 ft | 397 kts | 294° |
| 2026-05-04 13:11 | 26.41830 | 107.64966 | 34219 ft | 396 kts | 294° |
| 2026-05-04 13:11 | 26.44187 | 107.59439 | 34211 ft | 397 kts | 294° |
| 2026-05-04 13:12 | 26.46555 | 107.53875 | 34214 ft | 397 kts | 293° |
| 2026-05-04 13:12 | 26.48917 | 107.48310 | 34218 ft | 397 kts | 294° |
| 2026-05-04 13:13 | 26.51277 | 107.42742 | 34224 ft | 397 kts | 294° |
| 2026-05-04 13:13 | 26.53629 | 107.37171 | 34237 ft | 396 kts | 293° |
| 2026-05-04 13:14 | 26.55977 | 107.31606 | 34231 ft | 396 kts | 294° |
| 2026-05-04 13:14 | 26.58331 | 107.26042 | 34232 ft | 396 kts | 294° |
| 2026-05-04 13:15 | 26.60685 | 107.20477 | 34236 ft | 396 kts | 294° |
| 2026-05-04 13:15 | 26.63023 | 107.14943 | 34243 ft | 397 kts | 293° |
| 2026-05-04 13:16 | 26.65390 | 107.09373 | 34253 ft | 397 kts | 294° |
| 2026-05-04 13:16 | 26.67762 | 107.03802 | 34256 ft | 397 kts | 294° |
| 2026-05-04 13:17 | 26.70127 | 106.98230 | 34264 ft | 397 kts | 294° |
| 2026-05-04 13:17 | 26.72492 | 106.92652 | 34273 ft | 397 kts | 294° |
| 2026-05-04 13:18 | 26.74849 | 106.87072 | 34268 ft | 397 kts | 294° |
| 2026-05-04 13:18 | 26.77209 | 106.81488 | 34267 ft | 397 kts | 294° |
| 2026-05-04 13:19 | 26.80359 | 106.76412 | 34262 ft | 404 kts | 312° |
| 2026-05-04 13:19 | 26.84597 | 106.72246 | 34260 ft | 406 kts | 314° |
| 2026-05-04 13:20 | 26.88843 | 106.68088 | 34250 ft | 405 kts | 314° |
| 2026-05-04 13:20 | 26.93090 | 106.63926 | 34244 ft | 405 kts | 314° |
| 2026-05-04 13:21 | 26.97330 | 106.59770 | 34243 ft | 405 kts | 314° |
| 2026-05-04 13:21 | 27.01562 | 106.55612 | 34242 ft | 404 kts | 314° |
| 2026-05-04 13:22 | 27.05761 | 106.51481 | 34239 ft | 404 kts | 314° |
| 2026-05-04 13:22 | 27.09983 | 106.47325 | 34231 ft | 403 kts | 314° |
| 2026-05-04 13:23 | 27.14199 | 106.43171 | 34231 ft | 403 kts | 314° |
| 2026-05-04 13:23 | 27.18416 | 106.39025 | 34222 ft | 402 kts | 314° |
| 2026-05-04 13:24 | 27.22638 | 106.34884 | 34219 ft | 403 kts | 314° |
| 2026-05-04 13:24 | 27.26884 | 106.30759 | 34215 ft | 404 kts | 314° |
| 2026-05-04 13:25 | 27.33254 | 106.24558 | 34214 ft | 404 kts | 314° |
| 2026-05-04 13:25 | 27.37468 | 106.20453 | 34213 ft | 403 kts | 314° |
| 2026-05-04 13:26 | 27.41701 | 106.16314 | 34213 ft | 403 kts | 314° |
| 2026-05-04 13:26 | 27.45934 | 106.12171 | 34211 ft | 403 kts | 314° |
| 2026-05-04 13:27 | 27.50168 | 106.08032 | 34205 ft | 403 kts | 314° |
| 2026-05-04 13:27 | 27.54399 | 106.03893 | 34200 ft | 403 kts | 314° |
| 2026-05-04 13:28 | 27.58624 | 105.99748 | 34198 ft | 403 kts | 314° |
| 2026-05-04 13:28 | 27.62851 | 105.95603 | 34197 ft | 402 kts | 314° |
| 2026-05-04 13:29 | 27.67069 | 105.91461 | 34195 ft | 402 kts | 314° |
| 2026-05-04 13:29 | 27.71218 | 105.87261 | 34181 ft | 398 kts | 308° |
| 2026-05-04 13:30 | 27.74084 | 105.82031 | 34172 ft | 392 kts | 290° |
| 2026-05-04 13:30 | 27.75735 | 105.76157 | 34168 ft | 393 kts | 288° |
| 2026-05-04 13:31 | 27.77393 | 105.70272 | 34163 ft | 393 kts | 288° |
| 2026-05-04 13:31 | 27.79029 | 105.64427 | 34162 ft | 392 kts | 288° |
| 2026-05-04 13:32 | 27.80928 | 105.58667 | 34159 ft | 392 kts | 293° |
| 2026-05-04 13:32 | 27.83116 | 105.53029 | 34147 ft | 392 kts | 293° |
| 2026-05-04 13:33 | 27.85306 | 105.47382 | 34141 ft | 393 kts | 293° |
| 2026-05-04 13:33 | 27.87660 | 105.41817 | 34138 ft | 394 kts | 302° |
| 2026-05-04 13:34 | 27.91569 | 105.37425 | 34128 ft | 405 kts | 322° |
| 2026-05-04 13:34 | 27.96655 | 105.34525 | 34131 ft | 411 kts | 328° |
| 2026-05-04 13:35 | 28.04378 | 105.30301 | 34113 ft | 411 kts | 327° |
| 2026-05-04 13:36 | 28.09496 | 105.27492 | 34111 ft | 411 kts | 327° |
| 2026-05-04 13:36 | 28.14652 | 105.24667 | 34101 ft | 412 kts | 327° |
| 2026-05-04 13:37 | 28.19810 | 105.21835 | 34094 ft | 412 kts | 328° |
| 2026-05-04 13:37 | 28.24964 | 105.18995 | 34089 ft | 412 kts | 327° |
| 2026-05-04 13:38 | 28.30118 | 105.16159 | 34079 ft | 412 kts | 327° |
| 2026-05-04 13:38 | 28.35279 | 105.13316 | 34076 ft | 413 kts | 327° |
| 2026-05-04 13:39 | 28.40444 | 105.10458 | 34072 ft | 413 kts | 327° |
| 2026-05-04 13:39 | 28.45584 | 105.07619 | 34070 ft | 413 kts | 327° |
| 2026-05-04 13:40 | 28.50756 | 105.04769 | 34068 ft | 413 kts | 327° |
| 2026-05-04 13:40 | 28.55934 | 105.01906 | 34058 ft | 414 kts | 327° |
| 2026-05-04 13:41 | 28.61113 | 104.99037 | 34062 ft | 414 kts | 327° |
| 2026-05-04 13:41 | 28.66294 | 104.96161 | 34059 ft | 414 kts | 327° |
| 2026-05-04 13:42 | 28.74067 | 104.91852 | 34058 ft | 414 kts | 327° |
| 2026-05-04 13:42 | 28.79248 | 104.88978 | 34062 ft | 414 kts | 327° |
| 2026-05-04 13:43 | 28.84433 | 104.86093 | 34060 ft | 414 kts | 327° |
| 2026-05-04 13:43 | 28.89611 | 104.83205 | 34062 ft | 414 kts | 327° |
| 2026-05-04 13:44 | 28.94754 | 104.80331 | 34068 ft | 414 kts | 327° |
| 2026-05-04 13:44 | 28.99928 | 104.77436 | 34073 ft | 414 kts | 327° |
| 2026-05-04 13:45 | 29.05095 | 104.74550 | 33729 ft | 413 kts | 328° |
| 2026-05-04 13:45 | 29.07674 | 104.73111 | 33470 ft | 412 kts | 327° |
| 2026-05-04 13:45 | 29.10250 | 104.71673 | 33216 ft | 412 kts | 328° |
| 2026-05-04 13:46 | 29.12829 | 104.70232 | 32969 ft | 412 kts | 328° |
| 2026-05-04 13:46 | 29.15401 | 104.68788 | 32722 ft | 412 kts | 328° |
| 2026-05-04 13:46 | 29.17976 | 104.67344 | 32473 ft | 412 kts | 328° |
| 2026-05-04 13:46 | 29.20552 | 104.65897 | 32231 ft | 412 kts | 328° |
| 2026-05-04 13:47 | 29.23127 | 104.64450 | 31990 ft | 412 kts | 328° |
| 2026-05-04 13:47 | 29.25701 | 104.63005 | 31752 ft | 413 kts | 328° |
| 2026-05-04 13:47 | 29.28280 | 104.61560 | 31515 ft | 413 kts | 328° |
| 2026-05-04 13:47 | 29.30921 | 104.60236 | 31273 ft | 417 kts | 335° |
| 2026-05-04 13:48 | 29.33757 | 104.59410 | 30976 ft | 422 kts | 342° |
| 2026-05-04 13:48 | 29.36635 | 104.58770 | 30204 ft | 422 kts | 342° |
| 2026-05-04 13:48 | 29.39484 | 104.58143 | 29259 ft | 423 kts | 343° |
| 2026-05-04 13:48 | 29.42380 | 104.57509 | 28238 ft | 426 kts | 343° |
| 2026-05-04 13:49 | 29.45300 | 104.56868 | 27704 ft | 429 kts | 343° |
| 2026-05-04 13:49 | 29.48265 | 104.56321 | 27509 ft | 435 kts | 349° |
| 2026-05-04 13:49 | 29.51309 | 104.56197 | 27370 ft | 438 kts | 353° |
| 2026-05-04 13:49 | 29.54338 | 104.56126 | 26191 ft | 434 kts | 353° |
| 2026-05-04 13:50 | 29.57371 | 104.56046 | 24378 ft | 439 kts | 354° |
| 2026-05-04 13:50 | 29.60431 | 104.55958 | 22939 ft | 436 kts | 355° |
| 2026-05-04 13:50 | 29.62408 | 104.55902 | 22516 ft | 420 kts | 355° |
| 2026-05-04 13:50 | 29.65225 | 104.55829 | 22305 ft | 390 kts | 355° |
| 2026-05-04 13:51 | 29.67849 | 104.55765 | 22181 ft | 364 kts | 354° |
| 2026-05-04 13:51 | 29.70296 | 104.55703 | 22040 ft | 340 kts | 354° |
| 2026-05-04 13:51 | 29.72584 | 104.55641 | 21912 ft | 319 kts | 354° |
| 2026-05-04 13:51 | 29.74733 | 104.55580 | 21747 ft | 300 kts | 354° |
| 2026-05-04 13:52 | 29.78754 | 104.56143 | 21212 ft | 299 kts | 22° |
| 2026-05-04 13:52 | 29.80384 | 104.57666 | 20962 ft | 310 kts | 47° |
| 2026-05-04 13:52 | 29.81345 | 104.59920 | 20722 ft | 320 kts | 69° |
| 2026-05-04 13:53 | 29.81963 | 104.62390 | 20476 ft | 320 kts | 66° |
| 2026-05-04 13:53 | 29.82847 | 104.64661 | 20238 ft | 311 kts | 52° |
| 2026-05-04 13:53 | 29.84123 | 104.66632 | 19939 ft | 305 kts | 43° |
| 2026-05-04 13:54 | 29.86955 | 104.70300 | 19268 ft | 302 kts | 37° |
| 2026-05-04 13:54 | 29.88598 | 104.71735 | 18966 ft | 293 kts | 23° |
| 2026-05-04 13:54 | 29.92273 | 104.73621 | 18331 ft | 287 kts | 18° |
| 2026-05-04 13:55 | 29.94101 | 104.74519 | 17770 ft | 283 kts | 14° |
| 2026-05-04 13:55 | 29.97889 | 104.74983 | 16615 ft | 272 kts | 355° |
| 2026-05-04 13:55 | 29.99772 | 104.74907 | 16115 ft | 269 kts | 355° |
| 2026-05-04 13:56 | 30.01632 | 104.74833 | 15702 ft | 267 kts | 355° |
| 2026-05-04 13:56 | 30.03451 | 104.74504 | 15305 ft | 264 kts | 341° |
| 2026-05-04 13:56 | 30.06743 | 104.72622 | 14388 ft | 272 kts | 328° |
| 2026-05-04 13:57 | 30.08104 | 104.71140 | 14014 ft | 275 kts | 303° |
| 2026-05-04 13:57 | 30.08691 | 104.69051 | 13708 ft | 276 kts | 274° |
| 2026-05-04 13:58 | 30.05952 | 104.63404 | 12716 ft | 278 kts | 229° |
| 2026-05-04 13:58 | 30.03354 | 104.60157 | 11718 ft | 272 kts | 228° |
| 2026-05-04 13:58 | 30.02077 | 104.58562 | 11250 ft | 269 kts | 228° |
| 2026-05-04 13:59 | 30.00816 | 104.56983 | 10790 ft | 266 kts | 228° |
| 2026-05-04 13:59 | 29.99766 | 104.55263 | 10326 ft | 261 kts | 248° |
| 2026-05-04 13:59 | 29.99707 | 104.51231 | 9341 ft | 257 kts | 291° |
| 2026-05-04 14:00 | 30.00383 | 104.49326 | 8800 ft | 257 kts | 291° |
| 2026-05-04 14:00 | 30.01702 | 104.45633 | 8311 ft | 241 kts | 291° |
| 2026-05-04 14:00 | 30.02315 | 104.43837 | 8197 ft | 240 kts | 284° |
| 2026-05-04 14:01 | 30.02356 | 104.41966 | 7913 ft | 233 kts | 252° |
| 2026-05-04 14:01 | 30.01604 | 104.40334 | 7577 ft | 232 kts | 232° |
| 2026-05-04 14:01 | 29.98946 | 104.38587 | 7191 ft | 219 kts | 182° |
| 2026-05-04 14:02 | 29.97479 | 104.38885 | 7022 ft | 214 kts | 156° |
| 2026-05-04 14:02 | 29.96175 | 104.39660 | 6762 ft | 213 kts | 153° |
| 2026-05-04 14:02 | 29.94865 | 104.40459 | 6479 ft | 214 kts | 153° |
| 2026-05-04 14:02 | 29.93533 | 104.41262 | 6144 ft | 217 kts | 156° |
| 2026-05-04 14:03 | 29.92073 | 104.41541 | 5880 ft | 215 kts | 190° |
| 2026-05-04 14:03 | 29.90741 | 104.40824 | 5632 ft | 215 kts | 223° |
| 2026-05-04 14:03 | 29.89983 | 104.39360 | 5391 ft | 217 kts | 257° |
| 2026-05-04 14:03 | 29.90081 | 104.37640 | 5216 ft | 220 kts | 289° |
| 2026-05-04 14:04 | 29.91265 | 104.34343 | 5033 ft | 223 kts | 290° |
| 2026-05-04 14:04 | 29.91848 | 104.32686 | 4928 ft | 223 kts | 290° |
| 2026-05-04 14:04 | 29.92639 | 104.31151 | 4872 ft | 224 kts | 310° |
| 2026-05-04 14:05 | 29.95331 | 104.29411 | 4858 ft | 226 kts | 353° |
| 2026-05-04 14:05 | 29.96899 | 104.29451 | 4864 ft | 226 kts | 14° |
| 2026-05-04 14:05 | 29.98359 | 104.30045 | 4860 ft | 227 kts | 23° |
| 2026-05-04 14:06 | 29.99815 | 104.30729 | 4864 ft | 227 kts | 23° |
| 2026-05-04 14:06 | 30.01269 | 104.31410 | 4864 ft | 227 kts | 23° |
| 2026-05-04 14:06 | 30.02726 | 104.32093 | 4869 ft | 227 kts | 23° |
| 2026-05-04 14:06 | 30.04181 | 104.32774 | 4882 ft | 227 kts | 23° |
| 2026-05-04 14:07 | 30.05636 | 104.33455 | 4884 ft | 227 kts | 22° |
| 2026-05-04 14:07 | 30.07093 | 104.34138 | 4887 ft | 227 kts | 22° |
| 2026-05-04 14:07 | 30.08548 | 104.34819 | 4893 ft | 226 kts | 22° |
| 2026-05-04 14:07 | 30.09965 | 104.35483 | 4903 ft | 211 kts | 22° |
| 2026-05-04 14:08 | 30.11284 | 104.36102 | 4837 ft | 199 kts | 23° |
| 2026-05-04 14:08 | 30.12558 | 104.36699 | 4578 ft | 196 kts | 23° |
| 2026-05-04 14:08 | 30.13818 | 104.37290 | 4316 ft | 194 kts | 23° |
| 2026-05-04 14:08 | 30.15064 | 104.37875 | 4089 ft | 192 kts | 23° |
| 2026-05-04 14:09 | 30.17510 | 104.39023 | 3615 ft | 187 kts | 24° |
| 2026-05-04 14:09 | 30.18690 | 104.39577 | 3386 ft | 178 kts | 24° |
| 2026-05-04 14:10 | 30.20845 | 104.40589 | 2980 ft | 159 kts | 24° |
| 2026-05-04 14:10 | 30.21852 | 104.41063 | 2765 ft | 155 kts | 24° |
| 2026-05-04 14:10 | 30.22846 | 104.41530 | 2567 ft | 153 kts | 25° |
| 2026-05-04 14:10 | 30.23831 | 104.41993 | 2366 ft | 152 kts | 24° |
| 2026-05-04 14:11 | 30.24803 | 104.42450 | 2162 ft | 150 kts | 23° |
| 2026-05-04 14:11 | 30.26693 | 104.43348 | 1730 ft | 146 kts | 23° |
| 2026-05-04 14:11 | 30.27633 | 104.43788 | 1556 ft | 146 kts | 22° |
| 2026-05-04 14:12 | 30.28545 | 104.44208 | 1458 ft | 128 kts | 22° |
| 2026-05-04 14:12 | 30.29223 | 104.44535 | 1461 ft | 76 kts | 22° |
| 2026-05-04 14:12 | 30.29675 | 104.44745 | 1460 ft | 27 kts | 20° |
| 2026-05-04 14:13 | 30.29829 | 104.44780 | 1460 ft | 18 kts | 1° |
| 2026-05-04 14:13 | 30.29937 | 104.44772 | 1460 ft | 15 kts | 354° |
| 2026-05-04 14:13 | 30.30024 | 104.44761 | 1459 ft | 13 kts | 354° |
| 2026-05-04 14:13 | 30.30098 | 104.44722 | 1459 ft | 12 kts | 295° |
| 2026-05-04 14:14 | 30.30130 | 104.44622 | 1457 ft | 14 kts | 292° |
| 2026-05-04 14:14 | 30.30217 | 104.44374 | 1454 ft | 19 kts | 292° |
| 2026-05-04 14:14 | 30.30271 | 104.44221 | 1457 ft | 22 kts | 292° |
| 2026-05-04 14:15 | 30.30396 | 104.43877 | 1455 ft | 17 kts | 293° |
| 2026-05-04 14:15 | 30.30461 | 104.43711 | 1454 ft | 8 kts | 312° |
| 2026-05-04 14:16 | 30.30574 | 104.43736 | 1454 ft | 11 kts | 22° |
| 2026-05-04 14:16 | 30.30649 | 104.43772 | 1454 ft | 13 kts | 22° |
| 2026-05-04 14:17 | 30.30812 | 104.43857 | 1453 ft | 10 kts | 22° |
| 2026-05-04 14:17 | 30.30880 | 104.43889 | 1453 ft | 9 kts | 22° |
| 2026-05-04 14:17 | 30.30950 | 104.43907 | 1453 ft | 4 kts | 329° |
| 2026-05-04 14:18 | 30.30961 | 104.43880 | 1453 ft | 3 kts | 291° |
| 2026-05-04 14:18 | 30.30966 | 104.43866 | 1450 ft | 0 kts | 291° |